sensor_id;sensor_type;location;lat;lon;timestamp;temperature;humidity
71177;DHT22;58877;51.992;4.504;2023-02-01T00:00:51;7.93;70.92
71177;DHT22;58877;51.992;4.504;2023-02-01T00:03:17;7.95;70.68
71177;DHT22;58877;51.992;4.504;2023-02-01T00:05:44;7.96;70.31
71177;DHT22;58877;51.992;4.504;2023-02-01T00:08:09;7.95;70.51
71177;DHT22;58877;51.992;4.504;2023-02-01T00:10:35;7.91;70.55
71177;DHT22;58877;51.992;4.504;2023-02-01T00:13:01;7.89;70.35
71177;DHT22;58877;51.992;4.504;2023-02-01T00:15:26;7.95;70.24
71177;DHT22;58877;51.992;4.504;2023-02-01T00:17:55;7.95;70.25
71177;DHT22;58877;51.992;4.504;2023-02-01T00:20:21;7.93;70.01
71177;DHT22;58877;51.992;4.504;2023-02-01T00:22:46;7.96;69.97
71177;DHT22;58877;51.992;4.504;2023-02-01T00:25:12;7.95;69.82
71177;DHT22;58877;51.992;4.504;2023-02-01T00:27:37;7.93;69.65
71177;DHT22;58877;51.992;4.504;2023-02-01T00:30:03;7.92;69.40
71177;DHT22;58877;51.992;4.504;2023-02-01T00:32:29;7.93;69.37
71177;DHT22;58877;51.992;4.504;2023-02-01T00:34:57;7.91;69.23
71177;DHT22;58877;51.992;4.504;2023-02-01T00:37:22;7.96;69.13
71177;DHT22;58877;51.992;4.504;2023-02-01T00:39:48;7.95;68.96
71177;DHT22;58877;51.992;4.504;2023-02-01T00:42:14;7.92;69.00
71177;DHT22;58877;51.992;4.504;2023-02-01T00:44:40;7.95;68.71
71177;DHT22;58877;51.992;4.504;2023-02-01T00:47:05;7.96;68.95
71177;DHT22;58877;51.992;4.504;2023-02-01T00:49:31;7.88;69.40
71177;DHT22;58877;51.992;4.504;2023-02-01T00:51:57;7.85;69.49
71177;DHT22;58877;51.992;4.504;2023-02-01T00:54:23;7.91;69.37
71177;DHT22;58877;51.992;4.504;2023-02-01T00:56:49;7.92;69.55
71177;DHT22;58877;51.992;4.504;2023-02-01T00:59:15;7.93;69.81
71177;DHT22;58877;51.992;4.504;2023-02-01T01:01:41;7.86;70.35
71177;DHT22;58877;51.992;4.504;2023-02-01T01:04:07;7.89;70.57
71177;DHT22;58877;51.992;4.504;2023-02-01T01:06:34;7.91;70.73
71177;DHT22;58877;51.992;4.504;2023-02-01T01:09:03;7.92;70.82
71177;DHT22;58877;51.992;4.504;2023-02-01T01:11:32;7.92;70.90
71177;DHT22;58877;51.992;4.504;2023-02-01T01:13:59;7.93;71.04
71177;DHT22;58877;51.992;4.504;2023-02-01T01:16:27;7.96;71.11
71177;DHT22;58877;51.992;4.504;2023-02-01T01:18:54;7.91;71.45
71177;DHT22;58877;51.992;4.504;2023-02-01T01:21:20;7.92;71.59
71177;DHT22;58877;51.992;4.504;2023-02-01T01:23:46;7.92;71.80
71177;DHT22;58877;51.992;4.504;2023-02-01T01:26:16;7.99;71.80
71177;DHT22;58877;51.992;4.504;2023-02-01T01:28:42;7.96;72.04
71177;DHT22;58877;51.992;4.504;2023-02-01T01:31:09;7.99;72.02
71177;DHT22;58877;51.992;4.504;2023-02-01T01:33:34;7.99;72.08
71177;DHT22;58877;51.992;4.504;2023-02-01T01:36:01;7.99;71.97
71177;DHT22;58877;51.992;4.504;2023-02-01T01:38:27;8.01;71.79
71177;DHT22;58877;51.992;4.504;2023-02-01T01:40:52;7.99;72.01
71177;DHT22;58877;51.992;4.504;2023-02-01T01:43:20;7.93;72.26
71177;DHT22;58877;51.992;4.504;2023-02-01T01:45:48;7.93;72.62
71177;DHT22;58877;51.992;4.504;2023-02-01T01:48:25;7.89;72.69
71177;DHT22;58877;51.992;4.504;2023-02-01T01:51:02;7.86;72.82
71177;DHT22;58877;51.992;4.504;2023-02-01T01:53:36;7.88;73.04
71177;DHT22;58877;51.992;4.504;2023-02-01T01:56:04;7.84;73.25
71177;DHT22;58877;51.992;4.504;2023-02-01T01:58:33;7.81;73.49
71177;DHT22;58877;51.992;4.504;2023-02-01T02:00:59;7.81;73.78
71177;DHT22;58877;51.992;4.504;2023-02-01T02:03:42;7.79;73.97
71177;DHT22;58877;51.992;4.504;2023-02-01T02:06:20;7.85;73.85
71177;DHT22;58877;51.992;4.504;2023-02-01T02:09:03;7.88;73.84
71177;DHT22;58877;51.992;4.504;2023-02-01T02:11:31;7.84;74.03
71177;DHT22;58877;51.992;4.504;2023-02-01T02:14:17;7.85;73.94
71177;DHT22;58877;51.992;4.504;2023-02-01T02:17:07;7.86;73.81
71177;DHT22;58877;51.992;4.504;2023-02-01T02:26:04;7.91;73.51
71177;DHT22;58877;51.992;4.504;2023-02-01T02:40:52;7.95;73.15
71177;DHT22;58877;51.992;4.504;2023-02-01T02:43:48;7.91;73.52
71177;DHT22;58877;51.992;4.504;2023-02-01T02:46:32;7.88;73.78
71177;DHT22;58877;51.992;4.504;2023-02-01T02:52:16;7.91;73.70
71177;DHT22;58877;51.992;4.504;2023-02-01T02:55:05;7.95;73.48
71177;DHT22;58877;51.992;4.504;2023-02-01T02:57:38;7.96;73.22
71177;DHT22;58877;51.992;4.504;2023-02-01T03:00:30;7.96;73.12
71177;DHT22;58877;51.992;4.504;2023-02-01T03:03:15;7.98;73.12
71177;DHT22;58877;51.992;4.504;2023-02-01T03:06:13;7.96;73.21
71177;DHT22;58877;51.992;4.504;2023-02-01T03:08:43;7.92;73.43
71177;DHT22;58877;51.992;4.504;2023-02-01T03:11:14;7.92;73.52
71177;DHT22;58877;51.992;4.504;2023-02-01T03:13:44;7.82;73.79
71177;DHT22;58877;51.992;4.504;2023-02-01T03:21:45;7.77;74.41
71177;DHT22;58877;51.992;4.504;2023-02-01T03:24:19;7.74;74.58
71177;DHT22;58877;51.992;4.504;2023-02-01T03:26:54;7.71;74.52
71177;DHT22;58877;51.992;4.504;2023-02-01T03:29:54;7.67;74.59
71177;DHT22;58877;51.992;4.504;2023-02-01T03:32:22;7.65;74.39
71177;DHT22;58877;51.992;4.504;2023-02-01T03:34:52;7.70;74.08
71177;DHT22;58877;51.992;4.504;2023-02-01T03:37:26;7.67;73.93
71177;DHT22;58877;51.992;4.504;2023-02-01T03:40:03;7.65;73.96
71177;DHT22;58877;51.992;4.504;2023-02-01T03:42:46;7.70;73.99
71177;DHT22;58877;51.992;4.504;2023-02-01T03:45:24;7.68;74.07
71177;DHT22;58877;51.992;4.504;2023-02-01T03:47:56;7.70;74.14
71177;DHT22;58877;51.992;4.504;2023-02-01T03:50:26;7.68;74.21
71177;DHT22;58877;51.992;4.504;2023-02-01T03:52:59;7.67;74.29
71177;DHT22;58877;51.992;4.504;2023-02-01T03:55:28;7.67;74.25
71177;DHT22;58877;51.992;4.504;2023-02-01T04:00:28;7.64;74.01
71177;DHT22;58877;51.992;4.504;2023-02-01T04:02:54;7.62;73.76
71177;DHT22;58877;51.992;4.504;2023-02-01T04:05:21;7.65;73.59
71177;DHT22;58877;51.992;4.504;2023-02-01T04:07:47;7.65;73.87
71177;DHT22;58877;51.992;4.504;2023-02-01T04:10:13;7.65;74.00
71177;DHT22;58877;51.992;4.504;2023-02-01T04:12:39;7.58;73.89
71177;DHT22;58877;51.992;4.504;2023-02-01T04:15:05;7.60;73.86
71177;DHT22;58877;51.992;4.504;2023-02-01T04:17:31;7.64;73.74
71177;DHT22;58877;51.992;4.504;2023-02-01T04:19:57;7.68;73.74
71177;DHT22;58877;51.992;4.504;2023-02-01T04:22:22;7.71;73.67
71177;DHT22;58877;51.992;4.504;2023-02-01T04:24:48;7.74;73.76
71177;DHT22;58877;51.992;4.504;2023-02-01T04:27:14;7.74;73.68
71177;DHT22;58877;51.992;4.504;2023-02-01T04:29:39;7.74;73.55
71177;DHT22;58877;51.992;4.504;2023-02-01T04:32:05;7.72;73.46
71177;DHT22;58877;51.992;4.504;2023-02-01T04:34:31;7.75;73.44
71177;DHT22;58877;51.992;4.504;2023-02-01T04:37:00;7.75;73.56
71177;DHT22;58877;51.992;4.504;2023-02-01T04:39:29;7.77;73.57
71177;DHT22;58877;51.992;4.504;2023-02-01T04:41:54;7.75;73.64
71177;DHT22;58877;51.992;4.504;2023-02-01T04:44:20;7.70;73.79
71177;DHT22;58877;51.992;4.504;2023-02-01T04:46:47;7.72;74.03
71177;DHT22;58877;51.992;4.504;2023-02-01T04:49:14;7.68;73.86
71177;DHT22;58877;51.992;4.504;2023-02-01T04:51:40;7.67;73.41
71177;DHT22;58877;51.992;4.504;2023-02-01T04:54:06;7.70;73.45
71177;DHT22;58877;51.992;4.504;2023-02-01T04:56:33;7.62;73.44
71177;DHT22;58877;51.992;4.504;2023-02-01T04:59:00;7.68;73.33
71177;DHT22;58877;51.992;4.504;2023-02-01T05:01:28;7.67;73.50
71177;DHT22;58877;51.992;4.504;2023-02-01T05:03:54;7.64;73.80
71177;DHT22;58877;51.992;4.504;2023-02-01T05:06:20;7.64;73.87
71177;DHT22;58877;51.992;4.504;2023-02-01T05:08:46;7.58;74.15
71177;DHT22;58877;51.992;4.504;2023-02-01T05:11:12;7.60;74.36
71177;DHT22;58877;51.992;4.504;2023-02-01T05:13:58;7.50;74.21
71177;DHT22;58877;51.992;4.504;2023-02-01T05:16:24;7.50;74.18
71177;DHT22;58877;51.992;4.504;2023-02-01T05:18:50;7.50;74.36
71177;DHT22;58877;51.992;4.504;2023-02-01T05:21:15;7.50;74.60
71177;DHT22;58877;51.992;4.504;2023-02-01T05:23:41;7.43;74.85
71177;DHT22;58877;51.992;4.504;2023-02-01T05:26:25;7.43;75.02
71177;DHT22;58877;51.992;4.504;2023-02-01T05:28:51;7.43;75.14
71177;DHT22;58877;51.992;4.504;2023-02-01T05:31:17;7.38;75.27
71177;DHT22;58877;51.992;4.504;2023-02-01T05:33:42;7.40;75.44
71177;DHT22;58877;51.992;4.504;2023-02-01T05:36:08;7.37;75.64
71177;DHT22;58877;51.992;4.504;2023-02-01T05:38:34;7.40;75.58
71177;DHT22;58877;51.992;4.504;2023-02-01T05:41:00;7.38;75.63
71177;DHT22;58877;51.992;4.504;2023-02-01T05:43:26;7.37;75.83
71177;DHT22;58877;51.992;4.504;2023-02-01T05:45:52;7.37;75.71
71177;DHT22;58877;51.992;4.504;2023-02-01T05:48:18;7.44;75.70
71177;DHT22;58877;51.992;4.504;2023-02-01T05:50:45;7.44;75.62
71177;DHT22;58877;51.992;4.504;2023-02-01T05:53:10;7.47;75.37
71177;DHT22;58877;51.992;4.504;2023-02-01T05:55:37;7.46;75.46
71177;DHT22;58877;51.992;4.504;2023-02-01T05:58:03;7.44;75.64
71177;DHT22;58877;51.992;4.504;2023-02-01T06:00:29;7.41;75.97
71177;DHT22;58877;51.992;4.504;2023-02-01T06:02:54;7.38;76.08
71177;DHT22;58877;51.992;4.504;2023-02-01T06:05:20;7.41;75.93
71177;DHT22;58877;51.992;4.504;2023-02-01T06:07:46;7.43;76.03
71177;DHT22;58877;51.992;4.504;2023-02-01T06:10:12;7.40;76.16
71177;DHT22;58877;51.992;4.504;2023-02-01T06:12:38;7.40;76.32
71177;DHT22;58877;51.992;4.504;2023-02-01T06:15:04;7.38;76.42
71177;DHT22;58877;51.992;4.504;2023-02-01T06:17:30;7.48;76.37
71177;DHT22;58877;51.992;4.504;2023-02-01T06:19:55;7.40;76.61
71177;DHT22;58877;51.992;4.504;2023-02-01T06:22:21;7.41;76.57
71177;DHT22;58877;51.992;4.504;2023-02-01T06:24:48;7.48;76.43
71177;DHT22;58877;51.992;4.504;2023-02-01T06:27:14;7.50;76.18
71177;DHT22;58877;51.992;4.504;2023-02-01T06:29:40;7.52;75.85
71177;DHT22;58877;51.992;4.504;2023-02-01T06:32:05;7.52;75.51
71177;DHT22;58877;51.992;4.504;2023-02-01T06:34:31;7.55;74.98
71177;DHT22;58877;51.992;4.504;2023-02-01T06:36:56;7.64;74.86
71177;DHT22;58877;51.992;4.504;2023-02-01T06:39:22;7.62;74.76
71177;DHT22;58877;51.992;4.504;2023-02-01T06:41:48;7.61;74.60
71177;DHT22;58877;51.992;4.504;2023-02-01T06:44:17;7.60;74.57
71177;DHT22;58877;51.992;4.504;2023-02-01T06:46:48;7.60;74.80
71177;DHT22;58877;51.992;4.504;2023-02-01T06:49:34;7.64;74.96
71177;DHT22;58877;51.992;4.504;2023-02-01T06:52:14;7.55;74.96
71177;DHT22;58877;51.992;4.504;2023-02-01T06:54:49;7.57;75.09
71177;DHT22;58877;51.992;4.504;2023-02-01T06:57:15;7.55;75.46
71177;DHT22;58877;51.992;4.504;2023-02-01T06:59:40;7.57;75.56
71177;DHT22;58877;51.992;4.504;2023-02-01T07:02:10;7.57;75.75
71177;DHT22;58877;51.992;4.504;2023-02-01T07:04:36;7.51;76.04
71177;DHT22;58877;51.992;4.504;2023-02-01T07:07:03;7.51;76.03
71177;DHT22;58877;51.992;4.504;2023-02-01T07:09:29;7.52;75.91
71177;DHT22;58877;51.992;4.504;2023-02-01T07:11:54;7.57;75.99
71177;DHT22;58877;51.992;4.504;2023-02-01T07:14:20;7.54;76.22
71177;DHT22;58877;51.992;4.504;2023-02-01T07:16:45;7.55;76.30
71177;DHT22;58877;51.992;4.504;2023-02-01T07:19:11;7.51;76.14
71177;DHT22;58877;51.992;4.504;2023-02-01T07:21:36;7.55;75.98
71177;DHT22;58877;51.992;4.504;2023-02-01T07:24:03;7.54;76.01
71177;DHT22;58877;51.992;4.504;2023-02-01T07:26:28;7.60;75.89
71177;DHT22;58877;51.992;4.504;2023-02-01T07:28:54;7.61;75.63
71177;DHT22;58877;51.992;4.504;2023-02-01T07:31:19;7.60;75.61
71177;DHT22;58877;51.992;4.504;2023-02-01T07:33:48;7.60;75.82
71177;DHT22;58877;51.992;4.504;2023-02-01T07:36:17;7.57;76.03
71177;DHT22;58877;51.992;4.504;2023-02-01T07:38:43;7.60;76.08
71177;DHT22;58877;51.992;4.504;2023-02-01T07:41:10;7.61;76.18
71177;DHT22;58877;51.992;4.504;2023-02-01T07:43:36;7.52;76.29
71177;DHT22;58877;51.992;4.504;2023-02-01T07:46:03;7.52;76.15
71177;DHT22;58877;51.992;4.504;2023-02-01T07:48:30;7.51;76.03
71177;DHT22;58877;51.992;4.504;2023-02-01T07:50:58;7.52;75.96
71177;DHT22;58877;51.992;4.504;2023-02-01T07:53:24;7.54;75.83
71177;DHT22;58877;51.992;4.504;2023-02-01T07:55:49;7.52;75.85
71177;DHT22;58877;51.992;4.504;2023-02-01T07:58:15;7.54;76.03
71177;DHT22;58877;51.992;4.504;2023-02-01T08:00:41;7.54;76.05
71177;DHT22;58877;51.992;4.504;2023-02-01T08:03:25;7.58;76.13
71177;DHT22;58877;51.992;4.504;2023-02-01T08:05:54;7.64;76.08
71177;DHT22;58877;51.992;4.504;2023-02-01T08:13:33;7.57;76.38
71177;DHT22;58877;51.992;4.504;2023-02-01T08:16:00;7.57;76.28
71177;DHT22;58877;51.992;4.504;2023-02-01T08:18:26;7.62;76.11
71177;DHT22;58877;51.992;4.504;2023-02-01T08:20:52;7.65;75.94
71177;DHT22;58877;51.992;4.504;2023-02-01T08:23:17;7.65;75.80
71177;DHT22;58877;51.992;4.504;2023-02-01T08:25:43;7.67;75.66
71177;DHT22;58877;51.992;4.504;2023-02-01T08:28:09;7.71;75.52
71177;DHT22;58877;51.992;4.504;2023-02-01T08:30:39;7.75;75.09
71177;DHT22;58877;51.992;4.504;2023-02-01T08:33:05;7.72;74.70
71177;DHT22;58877;51.992;4.504;2023-02-01T08:35:38;7.84;74.69
71177;DHT22;58877;51.992;4.504;2023-02-01T08:38:04;7.81;75.02
71177;DHT22;58877;51.992;4.504;2023-02-01T08:40:30;7.78;75.29
71177;DHT22;58877;51.992;4.504;2023-02-01T08:42:56;7.84;75.40
71177;DHT22;58877;51.992;4.504;2023-02-01T08:45:25;7.86;75.33
71177;DHT22;58877;51.992;4.504;2023-02-01T08:47:53;7.91;75.28
71177;DHT22;58877;51.992;4.504;2023-02-01T08:50:20;7.91;75.12
71177;DHT22;58877;51.992;4.504;2023-02-01T08:52:46;7.99;75.24
71177;DHT22;58877;51.992;4.504;2023-02-01T08:55:13;7.99;75.18
71177;DHT22;58877;51.992;4.504;2023-02-01T08:57:39;7.92;75.30
71177;DHT22;58877;51.992;4.504;2023-02-01T09:00:06;7.95;75.10
71177;DHT22;58877;51.992;4.504;2023-02-01T09:02:33;8.07;75.08
71177;DHT22;58877;51.992;4.504;2023-02-01T09:04:59;8.05;75.03
71177;DHT22;58877;51.992;4.504;2023-02-01T09:07:25;8.12;74.93
71177;DHT22;58877;51.992;4.504;2023-02-01T09:09:50;8.13;74.55
71177;DHT22;58877;51.992;4.504;2023-02-01T09:12:16;8.19;74.65
71177;DHT22;58877;51.992;4.504;2023-02-01T09:14:41;8.21;74.21
71177;DHT22;58877;51.992;4.504;2023-02-01T09:17:07;8.16;74.18
71177;DHT22;58877;51.992;4.504;2023-02-01T09:19:33;8.19;74.06
71177;DHT22;58877;51.992;4.504;2023-02-01T09:21:58;8.17;74.26
71177;DHT22;58877;51.992;4.504;2023-02-01T09:24:24;8.22;73.96
71177;DHT22;58877;51.992;4.504;2023-02-01T09:26:50;8.23;74.11
71177;DHT22;58877;51.992;4.504;2023-02-01T09:29:16;8.23;73.89
71177;DHT22;58877;51.992;4.504;2023-02-01T09:31:42;8.23;73.64
71177;DHT22;58877;51.992;4.504;2023-02-01T09:34:08;8.22;73.87
71177;DHT22;58877;51.992;4.504;2023-02-01T09:36:40;8.26;73.60
71177;DHT22;58877;51.992;4.504;2023-02-01T09:39:06;8.32;73.81
71177;DHT22;58877;51.992;4.504;2023-02-01T09:46:58;8.35;73.55
71177;DHT22;58877;51.992;4.504;2023-02-01T09:49:33;8.43;73.51
71177;DHT22;58877;51.992;4.504;2023-02-01T09:52:04;8.37;73.25
71177;DHT22;58877;51.992;4.504;2023-02-01T10:00:16;8.25;72.88
71177;DHT22;58877;51.992;4.504;2023-02-01T10:02:43;8.22;72.86
71177;DHT22;58877;51.992;4.504;2023-02-01T10:05:16;8.35;72.97
71177;DHT22;58877;51.992;4.504;2023-02-01T10:10:16;8.29;73.09
71177;DHT22;58877;51.992;4.504;2023-02-01T10:27:02;8.25;73.27
71177;DHT22;58877;51.992;4.504;2023-02-01T10:29:37;8.28;73.59
71177;DHT22;58877;51.992;4.504;2023-02-01T10:32:13;8.35;73.71
71177;DHT22;58877;51.992;4.504;2023-02-01T10:34:39;8.35;73.82
71177;DHT22;58877;51.992;4.504;2023-02-01T10:37:31;8.43;73.50
71177;DHT22;58877;51.992;4.504;2023-02-01T10:40:00;8.46;73.17
71177;DHT22;58877;51.992;4.504;2023-02-01T10:42:29;8.42;73.36
71177;DHT22;58877;51.992;4.504;2023-02-01T10:45:00;8.46;73.29
71177;DHT22;58877;51.992;4.504;2023-02-01T10:47:27;8.53;72.99
71177;DHT22;58877;51.992;4.504;2023-02-01T10:52:42;8.69;72.45
71177;DHT22;58877;51.992;4.504;2023-02-01T10:58:10;8.73;72.13
71177;DHT22;58877;51.992;4.504;2023-02-01T11:00:47;8.69;72.00
71177;DHT22;58877;51.992;4.504;2023-02-01T11:06:11;8.69;72.09
71177;DHT22;58877;51.992;4.504;2023-02-01T11:08:52;8.71;72.12
71177;DHT22;58877;51.992;4.504;2023-02-01T11:11:18;8.71;72.19
71177;DHT22;58877;51.992;4.504;2023-02-01T11:13:52;8.76;72.21
71177;DHT22;58877;51.992;4.504;2023-02-01T11:16:19;8.76;72.11
71177;DHT22;58877;51.992;4.504;2023-02-01T11:18:44;8.73;72.27
71177;DHT22;58877;51.992;4.504;2023-02-01T11:21:14;8.71;72.21
71177;DHT22;58877;51.992;4.504;2023-02-01T11:26:40;8.84;72.59
71177;DHT22;58877;51.992;4.504;2023-02-01T11:29:17;8.74;72.40
71177;DHT22;58877;51.992;4.504;2023-02-01T11:31:45;8.70;72.74
71177;DHT22;58877;51.992;4.504;2023-02-01T11:34:16;8.83;72.50
71177;DHT22;58877;51.992;4.504;2023-02-01T11:36:45;8.80;72.14
71177;DHT22;58877;51.992;4.504;2023-02-01T11:44:46;8.90;72.02
71177;DHT22;58877;51.992;4.504;2023-02-01T11:47:19;8.84;71.81
71177;DHT22;58877;51.992;4.504;2023-02-01T11:49:45;8.91;71.87
71177;DHT22;58877;51.992;4.504;2023-02-01T11:58:03;8.80;72.05
71177;DHT22;58877;51.992;4.504;2023-02-01T12:00:43;8.80;72.18
71177;DHT22;58877;51.992;4.504;2023-02-01T12:06:29;8.79;72.48
71177;DHT22;58877;51.992;4.504;2023-02-01T12:26:01;8.67;73.12
71177;DHT22;58877;51.992;4.504;2023-02-01T12:28:38;8.66;72.94
71177;DHT22;58877;51.992;4.504;2023-02-01T12:33:49;8.87;72.12
71177;DHT22;58877;51.992;4.504;2023-02-01T12:44:42;8.97;72.54
71177;DHT22;58877;51.992;4.504;2023-02-01T12:47:34;8.96;72.33
71177;DHT22;58877;51.992;4.504;2023-02-01T12:50:17;8.85;72.67
71177;DHT22;58877;51.992;4.504;2023-02-01T12:52:50;8.88;72.42
71177;DHT22;58877;51.992;4.504;2023-02-01T12:58:06;9.00;72.35
71177;DHT22;58877;51.992;4.504;2023-02-01T13:00:48;9.00;72.09
71177;DHT22;58877;51.992;4.504;2023-02-01T13:05:54;8.87;72.07
71177;DHT22;58877;51.992;4.504;2023-02-01T13:08:26;8.96;72.19
71177;DHT22;58877;51.992;4.504;2023-02-01T13:16:26;9.03;72.08
71177;DHT22;58877;51.992;4.504;2023-02-01T13:19:10;9.08;72.05
71177;DHT22;58877;51.992;4.504;2023-02-01T13:21:45;9.07;72.52
71177;DHT22;58877;51.992;4.504;2023-02-01T13:24:36;9.10;72.47
71177;DHT22;58877;51.992;4.504;2023-02-01T13:27:04;9.01;72.71
71177;DHT22;58877;51.992;4.504;2023-02-01T13:29:34;8.92;72.92
71177;DHT22;58877;51.992;4.504;2023-02-01T13:43:14;8.91;73.65
71177;DHT22;58877;51.992;4.504;2023-02-01T13:45:51;8.91;73.52
71177;DHT22;58877;51.992;4.504;2023-02-01T13:48:29;9.00;73.43
71177;DHT22;58877;51.992;4.504;2023-02-01T13:51:02;8.91;73.96
71177;DHT22;58877;51.992;4.504;2023-02-01T13:53:36;8.90;73.81
71177;DHT22;58877;51.992;4.504;2023-02-01T13:56:18;8.90;73.71
71177;DHT22;58877;51.992;4.504;2023-02-01T13:58:47;8.91;73.81
71177;DHT22;58877;51.992;4.504;2023-02-01T14:03:56;9.07;73.59
71177;DHT22;58877;51.992;4.504;2023-02-01T14:09:13;9.00;74.18
71177;DHT22;58877;51.992;4.504;2023-02-01T14:11:45;8.94;74.01
71177;DHT22;58877;51.992;4.504;2023-02-01T14:16:40;9.04;73.93
71177;DHT22;58877;51.992;4.504;2023-02-01T14:21:54;8.96;74.27
71177;DHT22;58877;51.992;4.504;2023-02-01T14:24:31;9.05;74.17
71177;DHT22;58877;51.992;4.504;2023-02-01T14:27:00;8.99;74.41
71177;DHT22;58877;51.992;4.504;2023-02-01T14:29:39;9.03;74.57
71177;DHT22;58877;51.992;4.504;2023-02-01T14:32:18;9.05;74.46
71177;DHT22;58877;51.992;4.504;2023-02-01T14:47:50;9.17;74.87
71177;DHT22;58877;51.992;4.504;2023-02-01T14:53:23;9.12;75.05
71177;DHT22;58877;51.992;4.504;2023-02-01T15:06:33;9.15;75.44
71177;DHT22;58877;51.992;4.504;2023-02-01T15:14:31;9.22;75.39
71177;DHT22;58877;51.992;4.504;2023-02-01T15:17:00;9.22;75.25
71177;DHT22;58877;51.992;4.504;2023-02-01T15:19:29;9.27;75.25
71177;DHT22;58877;51.992;4.504;2023-02-01T15:21:57;9.25;75.25
71177;DHT22;58877;51.992;4.504;2023-02-01T15:24:27;9.25;75.01
71177;DHT22;58877;51.992;4.504;2023-02-01T15:26:54;9.31;74.96
71177;DHT22;58877;51.992;4.504;2023-02-01T15:29:24;9.27;74.76
71177;DHT22;58877;51.992;4.504;2023-02-01T15:31:53;9.25;74.59
71177;DHT22;58877;51.992;4.504;2023-02-01T15:34:20;9.27;74.69
71177;DHT22;58877;51.992;4.504;2023-02-01T15:36:47;9.27;74.43
71177;DHT22;58877;51.992;4.504;2023-02-01T15:39:14;9.32;74.24
71177;DHT22;58877;51.992;4.504;2023-02-01T15:41:54;9.39;73.87
71177;DHT22;58877;51.992;4.504;2023-02-01T15:44:30;9.41;73.93
71177;DHT22;58877;51.992;4.504;2023-02-01T15:47:07;9.42;73.58
71177;DHT22;58877;51.992;4.504;2023-02-01T15:50:00;9.41;73.29
71177;DHT22;58877;51.992;4.504;2023-02-01T15:52:39;9.46;73.10
71177;DHT22;58877;51.992;4.504;2023-02-01T15:55:25;9.48;73.18
71177;DHT22;58877;51.992;4.504;2023-02-01T15:57:57;9.49;72.74
71177;DHT22;58877;51.992;4.504;2023-02-01T16:00:27;9.52;72.72
71177;DHT22;58877;51.992;4.504;2023-02-01T16:03:00;9.51;72.74
71177;DHT22;58877;51.992;4.504;2023-02-01T16:05:45;9.52;72.78
71177;DHT22;58877;51.992;4.504;2023-02-01T16:08:23;9.49;72.76
71177;DHT22;58877;51.992;4.504;2023-02-01T16:10:52;9.49;72.76
71177;DHT22;58877;51.992;4.504;2023-02-01T16:13:22;9.48;72.85
71177;DHT22;58877;51.992;4.504;2023-02-01T16:15:48;9.54;72.92
71177;DHT22;58877;51.992;4.504;2023-02-01T16:18:17;9.51;73.09
71177;DHT22;58877;51.992;4.504;2023-02-01T16:20:50;9.51;73.09
71177;DHT22;58877;51.992;4.504;2023-02-01T16:23:27;9.55;73.01
71177;DHT22;58877;51.992;4.504;2023-02-01T16:25:54;9.61;73.06
71177;DHT22;58877;51.992;4.504;2023-02-01T16:28:20;9.56;73.14
71177;DHT22;58877;51.992;4.504;2023-02-01T16:30:48;9.58;73.22
71177;DHT22;58877;51.992;4.504;2023-02-01T16:33:19;9.58;73.30
71177;DHT22;58877;51.992;4.504;2023-02-01T16:35:49;9.58;73.42
71177;DHT22;58877;51.992;4.504;2023-02-01T16:38:38;9.59;73.52
71177;DHT22;58877;51.992;4.504;2023-02-01T16:41:04;9.59;73.76
71177;DHT22;58877;51.992;4.504;2023-02-01T16:43:32;9.56;73.99
71177;DHT22;58877;51.992;4.504;2023-02-01T16:46:04;9.54;74.47
71177;DHT22;58877;51.992;4.504;2023-02-01T16:48:36;9.49;74.60
71177;DHT22;58877;51.992;4.504;2023-02-01T16:51:12;9.48;74.73
71177;DHT22;58877;51.992;4.504;2023-02-01T16:53:39;9.49;74.85
71177;DHT22;58877;51.992;4.504;2023-02-01T16:56:17;9.51;74.91
71177;DHT22;58877;51.992;4.504;2023-02-01T16:58:44;9.46;75.16
71177;DHT22;58877;51.992;4.504;2023-02-01T17:01:13;9.44;75.44
71177;DHT22;58877;51.992;4.504;2023-02-01T17:03:40;9.45;75.52
71177;DHT22;58877;51.992;4.504;2023-02-01T17:06:10;9.41;75.58
71177;DHT22;58877;51.992;4.504;2023-02-01T17:08:43;9.35;75.83
71177;DHT22;58877;51.992;4.504;2023-02-01T17:11:11;9.32;76.12
71177;DHT22;58877;51.992;4.504;2023-02-01T17:13:40;9.28;76.19
71177;DHT22;58877;51.992;4.504;2023-02-01T17:16:32;9.25;76.28
71177;DHT22;58877;51.992;4.504;2023-02-01T17:19:03;9.27;76.28
71177;DHT22;58877;51.992;4.504;2023-02-01T17:21:38;9.27;76.35
71177;DHT22;58877;51.992;4.504;2023-02-01T17:24:05;9.30;76.15
71177;DHT22;58877;51.992;4.504;2023-02-01T17:26:31;9.36;76.09
71177;DHT22;58877;51.992;4.504;2023-02-01T17:28:57;9.34;76.06
71177;DHT22;58877;51.992;4.504;2023-02-01T17:31:26;9.34;76.10
71177;DHT22;58877;51.992;4.504;2023-02-01T17:33:52;9.34;76.06
71177;DHT22;58877;51.992;4.504;2023-02-01T17:36:18;9.34;76.09
71177;DHT22;58877;51.992;4.504;2023-02-01T17:38:44;9.35;76.08
71177;DHT22;58877;51.992;4.504;2023-02-01T17:41:11;9.36;76.22
71177;DHT22;58877;51.992;4.504;2023-02-01T17:43:37;9.38;76.08
71177;DHT22;58877;51.992;4.504;2023-02-01T17:46:10;9.41;76.03
71177;DHT22;58877;51.992;4.504;2023-02-01T17:48:37;9.41;76.01
71177;DHT22;58877;51.992;4.504;2023-02-01T17:51:05;9.42;76.02
71177;DHT22;58877;51.992;4.504;2023-02-01T17:53:30;9.41;75.94
71177;DHT22;58877;51.992;4.504;2023-02-01T17:55:58;9.42;76.01
71177;DHT22;58877;51.992;4.504;2023-02-01T17:58:25;9.41;76.03
71177;DHT22;58877;51.992;4.504;2023-02-01T18:00:51;9.45;76.03
71177;DHT22;58877;51.992;4.504;2023-02-01T18:05:43;9.44;76.17
71177;DHT22;58877;51.992;4.504;2023-02-01T18:08:16;9.41;76.17
71177;DHT22;58877;51.992;4.504;2023-02-01T18:10:43;9.42;76.09
71177;DHT22;58877;51.992;4.504;2023-02-01T18:13:10;9.44;76.11
71177;DHT22;58877;51.992;4.504;2023-02-01T18:15:36;9.46;76.10
71177;DHT22;58877;51.992;4.504;2023-02-01T18:18:04;9.44;76.15
71177;DHT22;58877;51.992;4.504;2023-02-01T18:20:30;9.45;76.15
71177;DHT22;58877;51.992;4.504;2023-02-01T18:22:56;9.44;76.04
71177;DHT22;58877;51.992;4.504;2023-02-01T18:25:27;9.46;76.02
71177;DHT22;58877;51.992;4.504;2023-02-01T18:28:03;9.44;76.13
71177;DHT22;58877;51.992;4.504;2023-02-01T18:30:31;9.41;76.29
71177;DHT22;58877;51.992;4.504;2023-02-01T18:32:57;9.42;76.41
71177;DHT22;58877;51.992;4.504;2023-02-01T18:35:26;9.42;76.44
71177;DHT22;58877;51.992;4.504;2023-02-01T18:37:53;9.44;76.36
71177;DHT22;58877;51.992;4.504;2023-02-01T18:40:29;9.45;76.51
71177;DHT22;58877;51.992;4.504;2023-02-01T18:42:56;9.44;76.58
71177;DHT22;58877;51.992;4.504;2023-02-01T18:45:45;9.45;76.65
71177;DHT22;58877;51.992;4.504;2023-02-01T18:48:14;9.42;76.81
71177;DHT22;58877;51.992;4.504;2023-02-01T18:50:42;9.42;76.78
71177;DHT22;58877;51.992;4.504;2023-02-01T18:53:16;9.46;76.71
71177;DHT22;58877;51.992;4.504;2023-02-01T18:55:46;9.44;76.87
71177;DHT22;58877;51.992;4.504;2023-02-01T18:58:14;9.41;77.04
71177;DHT22;58877;51.992;4.504;2023-02-01T19:00:41;9.42;77.06
71177;DHT22;58877;51.992;4.504;2023-02-01T19:03:10;9.45;77.14
71177;DHT22;58877;51.992;4.504;2023-02-01T19:05:36;9.44;77.12